Time;durP1;ratioP1;P1;durP2;ratioP2;P2;SDS_P1;SDS_P2;PMS_P1;PMS_P2;Temp;Humidity;BMP_temperature;BMP_pressure;BME280_temperature;BME280_humidity;BME280_pressure;Samples;Min_cycle;Max_cycle;Signal;HPM_P1;HPM_P2
2021/12/10 00:01:42;;;;;;;22.37;13.33;;;3.90;99.90;;;;;;4778581;29;20050;-87
2021/12/10 00:04:11;;;;;;;30.33;15.53;;;3.90;99.90;;;;;;4826489;29;20141;-87
2021/12/10 00:06:48;;;;;;;25.92;15.75;;;4.70;99.90;;;;;;4823900;29;20187;-87
2021/12/10 00:09:30;;;;;;;23.95;15.40;;;3.90;99.90;;;;;;4807167;29;20042;-87
2021/12/10 00:12:07;;;;;;;28.65;13.85;;;3.90;99.90;;;;;;4848107;29;20533;-87
2021/12/10 00:14:34;;;;;;;28.77;14.80;;;3.90;99.90;;;;;;4809358;29;20442;-87
2021/12/10 00:17:01;;;;;;;28.17;14.02;;;3.90;99.90;;;;;;4846641;29;20042;-89
2021/12/10 00:19:34;;;;;;;35.40;14.35;;;3.90;99.90;;;;;;4846956;29;20077;-87
2021/12/10 00:22:09;;;;;;;25.70;12.57;;;4.00;99.90;;;;;;4838902;29;20454;-88
2021/12/10 00:24:40;;;;;;;29.63;13.48;;;3.90;99.90;;;;;;4839246;29;20043;-86
2021/12/10 00:27:08;;;;;;;23.80;14.43;;;3.90;99.90;;;;;;4831670;29;20120;-87
2021/12/10 00:29:36;;;;;;;23.38;12.88;;;3.90;99.90;;;;;;4823693;29;20141;-87
2021/12/10 00:32:15;;;;;;;21.15;12.60;;;3.90;99.90;;;;;;4808339;29;20585;-88
2021/12/10 00:34:48;;;;;;;27.17;13.40;;;3.90;99.90;;;;;;4823866;29;20505;-87
2021/12/10 00:37:17;;;;;;;24.60;13.55;;;4.00;99.90;;;;;;4838345;29;20489;-87
2021/12/10 00:39:53;;;;;;;21.45;12.40;;;4.10;99.90;;;;;;4837088;29;20058;-87
2021/12/10 00:42:23;;;;;;;23.17;12.90;;;4.00;99.90;;;;;;4807686;29;20122;-87
2021/12/10 00:44:49;;;;;;;20.77;13.32;;;4.20;99.90;;;;;;4839005;29;20485;-87
2021/12/10 00:47:15;;;;;;;24.63;12.95;;;4.50;99.90;;;;;;4837830;29;20122;-87
2021/12/10 00:49:41;;;;;;;26.37;12.37;;;4.00;99.90;;;;;;4791801;29;20087;-87
2021/12/10 00:52:10;;;;;;;32.22;13.40;;;4.30;99.90;;;;;;4838410;29;20155;-87
2021/12/10 00:54:36;;;;;;;23.17;12.55;;;4.00;99.90;;;;;;4833424;29;20054;-88
2021/12/10 00:57:02;;;;;;;30.33;14.80;;;4.00;99.90;;;;;;4790629;29;20042;-86
2021/12/10 00:59:28;;;;;;;22.52;12.43;;;4.00;99.90;;;;;;4822766;29;20115;-87
2021/12/10 01:01:54;;;;;;;24.55;13.23;;;4.00;99.90;;;;;;4811022;29;20137;-87
2021/12/10 01:04:26;;;;;;;25.92;11.80;;;4.00;99.90;;;;;;4805847;29;20054;-87
2021/12/10 01:06:55;;;;;;;25.80;12.18;;;4.00;99.90;;;;;;4821527;29;20073;-87
2021/12/10 01:09:29;;;;;;;22.35;12.73;;;4.90;99.90;;;;;;4807459;29;20053;-87
2021/12/10 01:12:21;;;;;;;32.83;14.23;;;4.00;99.90;;;;;;4824628;29;20073;-87
2021/12/10 01:15:21;;;;;;;22.60;11.88;;;4.40;99.90;;;;;;4822378;29;20397;-86
2021/12/10 01:28:49;;;;;;;22.67;11.77;;;4.00;99.90;;;;;;4837626;29;20390;-87
2021/12/10 01:31:15;;;;;;;22.05;12.50;;;4.00;99.90;;;;;;4822203;29;20046;-87
2021/12/10 01:33:43;;;;;;;28.17;13.20;;;4.00;99.90;;;;;;4838207;29;20079;-87
2021/12/10 01:36:10;;;;;;;27.73;13.18;;;4.00;99.90;;;;;;4841537;29;20062;-87
2021/12/10 01:38:39;;;;;;;25.67;12.50;;;4.80;99.90;;;;;;4837295;29;20058;-86
2021/12/10 01:41:09;;;;;;;20.15;11.63;;;4.00;99.90;;;;;;4837958;29;20474;-86
2021/12/10 01:43:38;;;;;;;27.50;13.23;;;4.00;99.90;;;;;;4791704;29;20050;-87
2021/12/10 01:46:11;;;;;;;24.60;12.38;;;4.00;99.90;;;;;;4837293;29;20081;-87
2021/12/10 01:48:47;;;;;;;20.63;12.27;;;4.00;99.90;;;;;;4836866;29;20558;-87
2021/12/10 01:51:18;;;;;;;21.90;11.27;;;4.70;99.90;;;;;;4821964;29;20062;-87
2021/12/10 01:53:47;;;;;;;20.13;11.55;;;4.00;99.90;;;;;;4849747;29;20046;-87
2021/12/10 01:56:18;;;;;;;18.38;11.25;;;3.90;99.90;;;;;;4837080;29;20050;-89
2021/12/10 01:58:45;;;;;;;20.92;11.00;;;4.00;99.90;;;;;;4806459;29;20050;-87
2021/12/10 02:01:16;;;;;;;16.42;10.63;;;4.00;99.90;;;;;;4842549;29;20522;-87
2021/12/10 02:03:45;;;;;;;21.67;10.55;;;4.70;99.90;;;;;;4805965;29;20050;-88
2021/12/10 02:06:13;;;;;;;13.55;9.93;;;3.90;99.90;;;;;;4825708;29;20047;-87
2021/12/10 02:08:40;;;;;;;25.08;10.98;;;3.90;99.90;;;;;;4806479;29;20070;-87
2021/12/10 02:11:07;;;;;;;15.93;9.93;;;3.90;99.90;;;;;;4791048;29;20051;-87
2021/12/10 02:13:34;;;;;;;17.30;10.55;;;3.90;99.90;;;;;;4791320;29;20062;-87
2021/12/10 02:16:02;;;;;;;19.08;9.57;;;4.20;99.90;;;;;;4789944;29;20042;-87
2021/12/10 02:18:31;;;;;;;18.88;9.43;;;3.90;99.90;;;;;;4821299;29;20638;-87
2021/12/10 02:21:03;;;;;;;19.52;9.55;;;4.40;99.90;;;;;;4817889;29;20145;-88
2021/12/10 02:23:42;;;;;;;22.63;10.43;;;3.80;99.90;;;;;;4804477;29;20042;-87
2021/12/10 02:26:11;;;;;;;17.08;9.80;;;3.80;99.90;;;;;;4807026;29;20053;-87
2021/12/10 02:28:38;;;;;;;19.15;8.25;;;4.70;99.90;;;;;;4822404;29;20047;-87
2021/12/10 02:31:07;;;;;;;23.23;10.60;;;3.80;99.90;;;;;;4821307;29;20087;-87
2021/12/10 02:33:33;;;;;;;15.98;8.90;;;3.80;99.90;;;;;;4809332;29;20386;-87
2021/12/10 02:35:59;;;;;;;19.17;9.10;;;4.00;99.90;;;;;;4791369;29;20399;-87
2021/12/10 02:38:34;;;;;;;21.73;9.40;;;3.70;99.90;;;;;;4806193;29;20053;-87
2021/12/10 02:41:00;;;;;;;20.30;9.48;;;4.50;99.90;;;;;;4821495;29;20038;-87
2021/12/10 02:43:26;;;;;;;16.17;8.60;;;3.70;99.90;;;;;;4793111;29;20098;-87
2021/12/10 02:45:57;;;;;;;17.93;10.70;;;3.70;99.90;;;;;;4791230;29;20512;-87
2021/12/10 02:48:26;;;;;;;16.48;10.50;;;3.70;99.90;;;;;;4812767;29;20398;-86
2021/12/10 02:50:54;;;;;;;14.18;8.85;;;4.60;99.90;;;;;;4806514;29;20054;-86
2021/12/10 02:53:26;;;;;;;12.95;9.68;;;4.10;99.90;;;;;;4805728;29;20038;-89
2021/12/10 02:55:53;;;;;;;17.10;10.95;;;4.20;99.90;;;;;;4806543;29;20103;-87
2021/12/10 02:58:19;;;;;;;17.83;11.35;;;3.70;99.90;;;;;;4791214;29;20042;-86
2021/12/10 03:00:55;;;;;;;18.70;9.30;;;3.60;99.90;;;;;;4806454;29;20038;-87
2021/12/10 03:03:21;;;;;;;17.38;9.88;;;3.70;99.90;;;;;;4791097;29;20054;-89
2021/12/10 03:05:48;;;;;;;17.58;8.65;;;3.70;99.90;;;;;;4820096;29;20129;-87
2021/12/10 03:08:14;;;;;;;18.27;9.63;;;3.70;99.90;;;;;;4804986;29;20099;-87
2021/12/10 03:10:40;;;;;;;18.77;9.63;;;3.70;99.90;;;;;;4819485;29;20038;-87
2021/12/10 03:13:09;;;;;;;18.33;9.03;;;3.70;99.90;;;;;;4821257;29;20530;-87
2021/12/10 03:15:35;;;;;;;14.10;8.75;;;3.70;99.90;;;;;;4827969;29;20594;-86
2021/12/10 03:18:04;;;;;;;14.90;9.65;;;4.30;99.90;;;;;;4798465;29;20046;-87
2021/12/10 03:20:34;;;;;;;23.10;9.23;;;3.70;99.90;;;;;;4805214;29;20132;-87
2021/12/10 03:23:02;;;;;;;20.33;8.95;;;3.70;99.90;;;;;;4826943;29;20389;-87
2021/12/10 03:25:28;;;;;;;26.98;10.50;;;3.80;99.90;;;;;;4820267;29;20058;-87
2021/12/10 03:27:54;;;;;;;17.60;10.03;;;3.70;99.90;;;;;;4820925;29;20046;-87
2021/12/10 03:30:23;;;;;;;21.43;10.83;;;3.70;99.90;;;;;;4789767;29;20519;-87
2021/12/10 03:32:49;;;;;;;13.63;10.30;;;3.70;99.90;;;;;;4805797;29;20125;-86
2021/12/10 03:35:31;;;;;;;21.80;10.50;;;4.50;99.90;;;;;;4805484;29;20138;-86
2021/12/10 03:38:01;;;;;;;15.43;9.40;;;4.20;99.90;;;;;;4806976;29;20130;-87
2021/12/10 03:40:29;;;;;;;18.02;12.20;;;4.70;99.90;;;;;;4805117;29;20058;-87
2021/12/10 03:42:58;;;;;;;23.67;12.45;;;3.70;99.90;;;;;;4824374;29;20102;-87
2021/12/10 03:45:27;;;;;;;22.48;12.50;;;3.70;99.90;;;;;;4805482;29;20046;-87
2021/12/10 03:47:53;;;;;;;21.65;13.23;;;3.50;99.90;;;;;;4820550;29;20391;-87
2021/12/10 03:50:29;;;;;;;21.10;11.57;;;3.70;99.90;;;;;;4833615;29;20038;-87
2021/12/10 03:52:55;;;;;;;20.98;13.05;;;3.80;99.90;;;;;;4825854;29;20050;-88
2021/12/10 03:55:24;;;;;;;24.60;14.80;;;3.60;99.90;;;;;;4790761;29;20081;-86
2021/12/10 03:57:51;;;;;;;21.15;13.77;;;3.70;99.90;;;;;;4811296;29;20296;-87
2021/12/10 04:00:20;;;;;;;24.88;13.65;;;4.40;99.90;;;;;;4806145;29;20046;-86
2021/12/10 04:02:46;;;;;;;21.45;15.05;;;3.60;99.90;;;;;;4820787;29;20103;-87
2021/12/10 04:05:15;;;;;;;26.83;14.15;;;3.60;99.90;;;;;;4788645;29;20126;-86
2021/12/10 04:07:41;;;;;;;21.17;12.80;;;4.20;99.90;;;;;;4819932;29;20034;-86
2021/12/10 04:10:09;;;;;;;25.20;14.53;;;3.60;99.90;;;;;;4790369;29;20049;-86
2021/12/10 04:12:37;;;;;;;23.85;13.63;;;3.60;99.90;;;;;;4805167;29;20049;-85
2021/12/10 04:15:06;;;;;;;17.55;12.50;;;4.00;99.90;;;;;;4820693;29;20046;-86
2021/12/10 04:17:33;;;;;;;20.50;13.02;;;3.50;99.90;;;;;;4819883;29;20073;-86
2021/12/10 04:20:00;;;;;;;15.65;11.93;;;3.50;99.90;;;;;;4788729;29;20054;-87
2021/12/10 04:22:32;;;;;;;22.08;12.48;;;4.10;99.90;;;;;;4791652;29;20042;-87
2021/12/10 04:24:59;;;;;;;22.25;12.85;;;3.50;99.90;;;;;;4808956;29;20049;-87
2021/12/10 04:27:25;;;;;;;20.08;12.38;;;4.30;99.90;;;;;;4808561;29;20050;-87
2021/12/10 04:29:55;;;;;;;21.65;11.65;;;4.40;99.90;;;;;;4823490;29;20046;-87
2021/12/10 04:32:23;;;;;;;18.42;10.75;;;3.40;99.90;;;;;;4793888;29;20061;-87
2021/12/10 04:34:50;;;;;;;20.85;11.02;;;3.80;99.90;;;;;;4796867;29;20080;-86
2021/12/10 04:37:16;;;;;;;19.73;12.00;;;3.30;99.90;;;;;;4791736;29;20043;-86
2021/12/10 04:39:46;;;;;;;21.30;12.73;;;3.30;99.90;;;;;;4817730;29;20058;-87
2021/12/10 04:42:15;;;;;;;17.30;10.60;;;3.60;99.90;;;;;;4823455;29;20077;-87
2021/12/10 04:44:41;;;;;;;17.67;10.60;;;3.20;99.90;;;;;;4822806;29;20115;-86
2021/12/10 04:47:07;;;;;;;16.47;10.43;;;3.10;99.90;;;;;;4836826;29;20038;-86
2021/12/10 04:49:33;;;;;;;19.80;11.13;;;3.10;99.90;;;;;;4793695;29;20393;-87
2021/12/10 04:51:59;;;;;;;21.40;12.53;;;3.10;99.90;;;;;;4822850;29;20046;-87
2021/12/10 04:54:26;;;;;;;21.55;11.35;;;3.00;99.90;;;;;;4820756;29;20047;-86
2021/12/10 04:56:54;;;;;;;;;;;3.60;99.90;;;;;;4793517;29;20144;-86
2021/12/10 04:59:21;;;;;;;;;;;2.50;99.90;;;;;;4807852;29;20492;-86
2021/12/10 05:01:48;;;;;;;15.20;8.43;;;2.90;99.90;;;;;;4807486;29;19921;-86
2021/12/10 05:04:14;;;;;;;24.95;11.00;;;2.90;99.90;;;;;;4804316;29;20087;-86
2021/12/10 05:06:40;;;;;;;18.52;9.93;;;2.80;99.90;;;;;;4835310;29;20138;-86
2021/12/10 05:09:10;;;;;;;14.50;9.93;;;3.10;99.90;;;;;;4816392;29;20099;-87
2021/12/10 05:11:36;;;;;;;14.00;9.60;;;3.20;99.90;;;;;;4822985;29;20053;-86
2021/12/10 05:14:05;;;;;;;15.93;9.75;;;2.80;99.90;;;;;;4823011;29;20046;-86
2021/12/10 05:16:31;;;;;;;21.45;11.38;;;2.70;99.90;;;;;;4822522;29;20447;-86
2021/12/10 05:19:00;;;;;;;15.00;9.60;;;3.30;99.90;;;;;;4822640;29;20107;-86
2021/12/10 05:21:32;;;;;;;19.35;11.55;;;2.70;99.90;;;;;;4807810;29;20042;-86
2021/12/10 05:23:59;;;;;;;19.50;11.52;;;3.40;99.90;;;;;;4805120;29;20070;-87
2021/12/10 05:26:25;;;;;;;24.35;11.05;;;2.70;99.90;;;;;;4807486;29;20042;-86
2021/12/10 05:28:51;;;;;;;22.73;11.00;;;2.70;99.90;;;;;;4792299;29;20122;-87
2021/12/10 05:31:17;;;;;;;17.70;10.97;;;2.70;99.90;;;;;;4777647;29;20066;-86
2021/12/10 05:33:42;;;;;;;21.63;12.67;;;3.50;99.90;;;;;;4828281;29;20061;-86
2021/12/10 05:36:08;;;;;;;18.03;11.80;;;3.00;99.90;;;;;;4821982;29;20125;-87
2021/12/10 05:38:34;;;;;;;17.40;11.17;;;2.70;99.90;;;;;;4806176;29;20042;-86
2021/12/10 05:41:05;;;;;;;15.57;10.80;;;2.70;99.90;;;;;;4807758;29;20049;-86
2021/12/10 05:43:31;;;;;;;20.70;10.73;;;2.70;99.90;;;;;;4823569;29;20482;-87
2021/12/10 05:45:57;;;;;;;27.52;11.57;;;2.70;99.90;;;;;;4821871;29;20046;-87
2021/12/10 05:48:23;;;;;;;16.73;9.63;;;3.40;99.90;;;;;;4807834;29;20038;-87
2021/12/10 05:50:49;;;;;;;16.25;9.95;;;2.60;99.90;;;;;;4807584;29;20058;-87
2021/12/10 05:53:15;;;;;;;24.60;9.90;;;2.60;99.90;;;;;;4791975;29;20046;-87
2021/12/10 05:55:42;;;;;;;16.33;9.73;;;3.00;99.90;;;;;;4823301;29;20635;-87
2021/12/10 05:58:08;;;;;;;15.40;8.90;;;2.60;99.90;;;;;;4823168;29;20074;-86
2021/12/10 06:00:43;;;;;;;14.25;9.38;;;2.60;99.90;;;;;;4807542;29;20085;-86
2021/12/10 06:03:10;;;;;;;12.35;8.38;;;2.60;99.90;;;;;;4807378;29;20049;-86
2021/12/10 06:05:40;;;;;;;17.65;9.60;;;2.50;99.90;;;;;;4843125;29;20133;-86
2021/12/10 06:08:06;;;;;;;12.82;8.57;;;2.50;99.90;;;;;;4834555;29;20414;-86
2021/12/10 06:10:33;;;;;;;15.55;8.63;;;2.50;99.90;;;;;;4843420;29;20123;-87
2021/12/10 06:12:59;;;;;;;13.57;8.68;;;2.50;99.90;;;;;;4789613;29;20083;-86
2021/12/10 06:15:26;;;;;;;12.70;8.90;;;2.40;99.90;;;;;;4821688;29;20085;-86
2021/12/10 06:17:52;;;;;;;10.93;7.57;;;3.20;99.90;;;;;;4852323;29;20054;-87
2021/12/10 06:20:22;;;;;;;14.23;8.43;;;3.30;99.90;;;;;;4807049;29;20493;-87
2021/12/10 06:22:48;;;;;;;13.23;8.65;;;3.20;99.90;;;;;;4835993;29;20059;-86
2021/12/10 06:25:14;;;;;;;11.30;7.53;;;2.30;99.90;;;;;;4806728;29;20529;-86
2021/12/10 06:27:44;;;;;;;13.52;8.70;;;2.30;99.90;;;;;;4833197;29;20042;-87
2021/12/10 06:30:13;;;;;;;12.73;7.50;;;2.90;99.90;;;;;;4806469;29;20039;-86
2021/12/10 06:32:41;;;;;;;14.40;8.10;;;2.20;99.90;;;;;;4836736;29;20509;-87
2021/12/10 06:35:08;;;;;;;14.60;8.02;;;2.20;99.90;;;;;;4847354;29;20061;-86
2021/12/10 06:37:35;;;;;;;13.70;8.70;;;2.20;99.90;;;;;;4806768;29;20042;-86
2021/12/10 06:40:02;;;;;;;12.50;8.48;;;2.20;99.90;;;;;;4806189;29;20054;-86
2021/12/10 06:42:29;;;;;;;;;;;2.10;99.90;;;;;;4843273;29;20090;-86
2021/12/10 06:44:54;;;;;;;10.27;5.93;;;2.10;99.90;;;;;;4821242;29;20394;-86
2021/12/10 06:47:20;;;;;;;11.73;8.13;;;2.80;99.90;;;;;;4836327;29;20042;-86
2021/12/10 06:49:46;;;;;;;14.97;7.63;;;2.20;99.90;;;;;;4840838;29;20047;-86
2021/12/10 06:52:14;;;;;;;13.50;7.80;;;2.40;99.90;;;;;;4836304;29;20042;-86
2021/12/10 06:54:40;;;;;;;17.15;7.97;;;2.40;99.90;;;;;;4804486;29;20052;-86
2021/12/10 06:57:06;;;;;;;13.20;7.47;;;2.10;99.90;;;;;;4804189;29;20133;-88
2021/12/10 06:59:31;;;;;;;11.95;7.60;;;1.80;99.90;;;;;;4849884;29;20553;-85
2021/12/10 07:01:57;;;;;;;11.45;7.35;;;1.80;99.90;;;;;;4845732;29;20077;-82
2021/12/10 07:04:23;;;;;;;11.93;7.10;;;2.00;99.90;;;;;;4820566;29;20058;-83
2021/12/10 07:06:50;;;;;;;13.93;7.70;;;2.40;99.90;;;;;;4822275;29;20054;-82
2021/12/10 07:09:20;;;;;;;12.77;7.63;;;2.50;99.90;;;;;;4820662;29;20042;-82
2021/12/10 07:11:48;;;;;;;12.02;6.15;;;1.70;99.90;;;;;;4819072;29;20383;-83
2021/12/10 07:14:14;;;;;;;9.80;5.57;;;1.60;99.90;;;;;;4822105;29;20431;-82
2021/12/10 07:16:40;;;;;;;19.10;6.80;;;1.60;99.90;;;;;;4836674;29;20039;-82
2021/12/10 07:19:08;;;;;;;10.75;6.57;;;1.80;99.90;;;;;;4833185;29;20303;-88
2021/12/10 07:21:35;;;;;;;9.68;7.68;;;1.60;99.90;;;;;;4836567;29;20107;-91
2021/12/10 07:24:05;;;;;;;11.55;6.57;;;2.30;99.90;;;;;;4820635;29;20495;-85
2021/12/10 07:26:32;;;;;;;9.20;6.25;;;1.40;99.90;;;;;;4822419;29;20394;-88
2021/12/10 07:28:59;;;;;;;10.23;6.72;;;1.40;99.90;;;;;;4836100;29;20042;-87
2021/12/10 07:31:26;;;;;;;9.45;5.65;;;1.70;99.90;;;;;;4843801;29;20086;-86
2021/12/10 07:33:53;;;;;;;8.45;6.05;;;1.90;99.90;;;;;;4820816;29;20046;-86
2021/12/10 07:36:19;;;;;;;11.45;7.05;;;1.40;99.90;;;;;;4821468;29;20405;-85
2021/12/10 07:38:45;;;;;;;9.23;6.50;;;1.30;99.90;;;;;;4821139;29;20046;-85
2021/12/10 07:41:11;;;;;;;18.13;7.07;;;1.30;99.90;;;;;;4841489;29;20104;-86
2021/12/10 07:43:37;;;;;;;15.02;7.05;;;1.40;99.90;;;;;;4836185;29;20042;-86
2021/12/10 07:46:04;;;;;;;14.27;6.72;;;1.40;99.90;;;;;;4837667;29;20231;-87
2021/12/10 07:48:34;;;;;;;8.85;5.63;;;1.30;99.90;;;;;;4842389;29;20046;-87
2021/12/10 07:51:09;;;;;;;11.85;6.10;;;1.30;99.90;;;;;;4835296;29;20069;-90
2021/12/10 07:53:35;;;;;;;16.67;6.68;;;1.30;99.90;;;;;;4834148;29;20387;-86
2021/12/10 07:56:04;;;;;;;7.30;5.28;;;1.40;99.90;;;;;;4848016;29;20046;-89
2021/12/10 07:58:32;;;;;;;15.20;6.72;;;1.30;99.90;;;;;;4839208;29;20084;-89
2021/12/10 08:00:59;;;;;;;15.25;6.72;;;1.30;99.90;;;;;;4849089;29;20051;-88
2021/12/10 08:03:25;;;;;;;14.00;6.18;;;1.30;99.90;;;;;;4840427;29;20065;-89
2021/12/10 08:05:52;;;;;;;10.03;5.63;;;1.30;99.90;;;;;;4837525;29;20058;-88
2021/12/10 08:08:18;;;;;;;10.65;6.22;;;1.30;99.90;;;;;;4822630;29;20101;-88
2021/12/10 08:10:48;;;;;;;14.27;6.63;;;1.30;99.90;;;;;;4823785;29;20110;-87
2021/12/10 08:13:15;;;;;;;7.78;5.68;;;1.40;99.90;;;;;;4812329;29;20061;-87
2021/12/10 08:15:42;;;;;;;10.10;5.72;;;1.40;99.90;;;;;;4839202;29;20050;-87
2021/12/10 08:18:11;;;;;;;10.82;6.57;;;1.50;99.90;;;;;;4808526;29;20054;-87
2021/12/10 08:20:37;;;;;;;7.53;5.93;;;2.20;99.90;;;;;;4851982;29;20510;-88
2021/12/10 08:23:03;;;;;;;9.57;5.93;;;1.60;99.90;;;;;;4829847;29;20071;-88
2021/12/10 08:25:29;;;;;;;13.50;6.15;;;1.60;99.90;;;;;;4839455;29;20050;-87
2021/12/10 08:27:56;;;;;;;10.27;6.88;;;1.60;99.90;;;;;;4809493;29;20103;-87
2021/12/10 08:30:24;;;;;;;8.27;5.43;;;1.70;99.90;;;;;;4823090;29;20072;-87
2021/12/10 08:32:53;;;;;;;9.75;4.65;;;2.30;99.90;;;;;;4838853;29;20131;-87
2021/12/10 08:35:20;;;;;;;13.77;6.53;;;2.00;99.90;;;;;;4823429;29;20125;-87
2021/12/10 08:37:47;;;;;;;13.85;7.25;;;3.20;99.90;;;;;;4839236;29;20062;-88
2021/12/10 08:40:15;;;;;;;;;;;2.50;99.90;;;;;;4846456;29;20074;-87
2021/12/10 08:42:41;;;;;;;9.15;4.15;;;2.80;99.90;;;;;;4843151;29;19928;-83
2021/12/10 08:45:07;;;;;;;11.77;5.60;;;2.80;99.90;;;;;;4838805;29;20125;-92
2021/12/10 08:47:34;;;;;;;11.65;5.70;;;2.80;99.90;;;;;;4824447;29;20038;-93
2021/12/10 08:50:00;;;;;;;8.60;4.82;;;3.00;99.90;;;;;;4832878;29;20050;-94
2021/12/10 08:52:26;;;;;;;7.07;4.78;;;2.90;99.90;;;;;;4819927;29;20097;-93
2021/12/10 08:54:52;;;;;;;7.63;4.77;;;2.90;99.90;;;;;;4806224;29;20103;-91
2021/12/10 08:57:22;;;;;;;8.10;5.50;;;3.00;99.90;;;;;;4828736;29;20051;-90
2021/12/10 08:59:48;;;;;;;12.30;5.85;;;3.80;99.90;;;;;;4807410;29;20125;-90
2021/12/10 09:02:16;;;;;;;7.80;5.40;;;3.20;99.90;;;;;;4805963;29;20122;-90
2021/12/10 09:04:42;;;;;;;9.48;5.25;;;4.00;99.90;;;;;;4835642;29;20127;-92
2021/12/10 09:07:11;;;;;;;22.27;6.33;;;3.30;99.90;;;;;;4822511;29;20050;-89
2021/12/10 09:09:40;;;;;;;17.75;4.38;;;3.20;99.90;;;;;;4820313;29;20050;-90
2021/12/10 09:12:11;;;;;;;7.32;5.10;;;3.30;99.90;;;;;;4807692;29;20081;-92
2021/12/10 09:14:43;;;;;;;12.43;5.00;;;3.40;99.90;;;;;;4845536;29;20053;-88
2021/12/10 09:17:13;;;;;;;8.18;4.82;;;3.40;99.90;;;;;;4849049;29;20419;-93
2021/12/10 09:19:41;;;;;;;8.80;4.47;;;3.40;99.90;;;;;;4808266;29;20525;-92
2021/12/10 09:22:08;;;;;;;8.00;5.75;;;4.30;99.90;;;;;;4809372;29;20054;-92
2021/12/10 09:24:48;;;;;;;7.93;4.32;;;3.30;99.90;;;;;;4808613;29;20058;-93
2021/12/10 09:27:14;;;;;;;8.55;5.95;;;3.30;99.90;;;;;;4838636;29;20046;-93
2021/12/10 09:29:45;;;;;;;7.13;4.72;;;2.60;99.90;;;;;;4818701;29;20406;-92
2021/12/10 09:32:17;;;;;;;9.50;5.10;;;4.00;99.90;;;;;;4823434;29;20416;-92
2021/12/10 09:34:43;;;;;;;9.95;5.18;;;4.20;99.90;;;;;;4838931;29;20157;-92
2021/12/10 09:37:10;;;;;;;5.50;4.15;;;3.60;99.90;;;;;;4823336;29;20133;-90
2021/12/10 09:39:39;;;;;;;5.75;4.07;;;3.00;99.90;;;;;;4839054;29;20089;-91
2021/12/10 09:42:06;;;;;;;6.70;4.82;;;4.30;99.90;;;;;;4809075;29;20061;-95
2021/12/10 09:44:38;;;;;;;14.07;6.25;;;4.20;99.90;;;;;;4808684;29;20062;-93
2021/12/10 09:47:10;;;;;;;6.97;4.85;;;4.30;99.90;;;;;;4809289;29;20133;-92
2021/12/10 09:49:37;;;;;;;8.27;5.85;;;4.30;99.90;;;;;;4824224;29;20107;-94
2021/12/10 09:52:15;;;;;;;6.05;3.95;;;4.40;99.90;;;;;;4824004;29;20058;-94
2021/12/10 09:54:42;;;;;;;6.55;4.13;;;4.30;99.90;;;;;;4807882;29;20498;-95
2021/12/10 09:57:17;;;;;;;9.25;4.63;;;4.40;99.90;;;;;;4823379;29;20046;-94
2021/12/10 09:59:51;;;;;;;6.10;4.97;;;5.20;99.90;;;;;;4821123;29;20059;-95
2021/12/10 10:02:33;;;;;;;6.35;4.45;;;4.60;99.90;;;;;;4829208;29;20050;-95
2021/12/10 10:05:07;;;;;;;5.40;4.10;;;4.70;99.90;;;;;;4859773;29;20077;-92
2021/12/10 10:07:36;;;;;;;4.75;4.20;;;4.60;99.90;;;;;;4836470;29;20077;-90
2021/12/10 10:10:14;;;;;;;5.60;4.15;;;4.80;99.90;;;;;;4815874;29;20498;-88
2021/12/10 10:12:41;;;;;;;;;;;4.90;99.90;;;;;;4825660;29;20129;-90
2021/12/10 10:15:16;;;;;;;4.70;3.53;;;5.00;99.90;;;;;;4823731;29;19924;-93
2021/12/10 10:17:42;;;;;;;6.18;3.92;;;5.10;99.90;;;;;;4854420;29;20093;-94
2021/12/10 10:20:10;;;;;;;8.53;3.87;;;5.10;99.90;;;;;;4822529;29;20074;-94
2021/12/10 10:22:37;;;;;;;4.40;3.30;;;5.20;99.90;;;;;;4808040;29;20095;-94
2021/12/10 10:25:08;;;;;;;6.85;3.83;;;5.20;99.90;;;;;;4807800;29;20513;-92
2021/12/10 10:27:36;;;;;;;6.70;3.97;;;5.40;99.90;;;;;;4807501;29;20058;-92
2021/12/10 10:30:25;;;;;;;4.55;3.33;;;6.20;99.90;;;;;;4793000;29;20058;-95
2021/12/10 10:32:55;;;;;;;5.72;3.75;;;5.70;99.90;;;;;;4822063;29;20183;-89
2021/12/10 10:35:28;;;;;;;5.40;3.45;;;5.70;99.90;;;;;;4846891;29;20051;-93
2021/12/10 10:37:55;;;;;;;3.80;3.47;;;5.80;99.90;;;;;;4838664;29;20050;-90
2021/12/10 10:40:26;;;;;;;6.28;3.20;;;6.00;99.90;;;;;;4838222;29;20406;-93
2021/12/10 10:42:53;;;;;;;3.75;3.25;;;6.20;99.90;;;;;;4823065;29;20062;-95
2021/12/10 10:45:30;;;;;;;3.75;2.80;;;6.40;99.90;;;;;;4807985;29;20054;-94
2021/12/10 10:47:57;;;;;;;3.55;2.58;;;6.60;99.90;;;;;;4822510;29;20051;-95
2021/12/10 10:50:41;;;;;;;5.38;2.85;;;6.70;99.90;;;;;;4822431;29;20206;-94
2021/12/10 10:53:13;;;;;;;7.43;2.90;;;6.80;99.90;;;;;;4830694;29;20528;-92
2021/12/10 10:56:04;;;;;;;6.60;2.72;;;6.90;99.90;;;;;;4831101;29;20053;-92
2021/12/10 10:58:38;;;;;;;6.20;3.03;;;7.00;99.90;;;;;;4822366;29;20505;-93
2021/12/10 11:01:15;;;;;;;3.55;2.15;;;7.10;99.90;;;;;;4824392;29;20074;-94
2021/12/10 11:03:59;;;;;;;5.45;2.50;;;7.20;99.90;;;;;;4807280;29;20054;-93
2021/12/10 11:06:47;;;;;;;3.45;2.55;;;7.30;99.90;;;;;;4822358;29;20054;-93
2021/12/10 11:09:18;;;;;;;;;;;7.50;99.90;;;;;;4853848;29;20085;-91
2021/12/10 11:11:50;;;;;;;2.85;2.45;;;7.60;99.90;;;;;;4837656;29;19932;-92
2021/12/10 11:14:49;;;;;;;3.28;2.97;;;7.70;99.90;;;;;;4824243;29;20054;-92
2021/12/10 11:17:29;;;;;;;3.97;2.80;;;7.70;99.90;;;;;;4799703;29;20054;-96
2021/12/10 11:20:23;;;;;;;4.40;2.65;;;7.80;99.90;;;;;;4823310;29;20102;-89
2021/12/10 11:23:03;;;;;;;3.17;2.33;;;8.30;99.90;;;;;;4833642;29;20065;-93
2021/12/10 11:25:34;;;;;;;3.28;2.50;;;8.40;99.90;;;;;;4810209;29;20051;-92
2021/12/10 11:28:11;;;;;;;3.97;2.42;;;8.60;99.90;;;;;;4845211;29;20145;-93
2021/12/10 11:30:49;;;;;;;3.55;2.45;;;8.60;99.90;;;;;;4841161;29;20061;-93
2021/12/10 11:33:21;;;;;;;2.90;2.50;;;9.20;99.90;;;;;;4838628;29;20061;-91
2021/12/10 11:36:11;;;;;;;5.70;2.67;;;8.80;99.90;;;;;;4811221;29;20046;-94
2021/12/10 11:38:40;;;;;;;3.60;2.40;;;8.80;99.90;;;;;;4826821;29;20083;-92
2021/12/10 11:41:17;;;;;;;4.28;1.92;;;8.20;99.90;;;;;;4823792;29;20069;-91
2021/12/10 11:49:39;;;;;;;2.45;1.92;;;8.80;99.90;;;;;;4845437;29;20422;-93
2021/12/10 11:52:10;;;;;;;3.53;2.03;;;8.70;99.90;;;;;;4814168;29;20082;-91
2021/12/10 11:54:38;;;;;;;1.95;1.80;;;8.70;99.90;;;;;;4843972;29;20050;-89
2021/12/10 11:57:16;;;;;;;3.40;2.28;;;8.60;99.90;;;;;;4830870;29;20470;-93
2021/12/10 11:59:48;;;;;;;3.38;1.90;;;8.70;99.90;;;;;;4826308;29;20059;-91
2021/12/10 12:02:26;;;;;;;4.13;1.98;;;8.70;99.90;;;;;;4846086;29;20497;-89
2021/12/10 12:05:05;;;;;;;2.40;2.00;;;9.10;99.90;;;;;;4838164;29;20063;-92
2021/12/10 12:07:41;;;;;;;2.47;1.92;;;8.60;99.90;;;;;;4808898;29;20414;-88
2021/12/10 12:10:32;;;;;;;;;;;;;;;;;;;;;
2021/12/10 12:13:24;;;;;;;2.58;1.75;;;8.50;99.90;;;;;;4839995;29;20106;-91
2021/12/10 12:16:03;;;;;;;3.53;1.90;;;8.70;99.90;;;;;;4824693;29;20093;-92
2021/12/10 12:18:37;;;;;;;2.53;2.33;;;8.80;99.90;;;;;;4838571;29;20055;-88
2021/12/10 12:27:06;;;;;;;4.10;2.15;;;8.70;99.90;;;;;;4852861;29;20061;-93
2021/12/10 12:29:37;;;;;;;2.42;1.75;;;8.70;99.90;;;;;;4844492;29;20046;-90
2021/12/10 12:32:30;;;;;;;2.03;1.83;;;8.60;99.90;;;;;;4850285;29;20062;-92
2021/12/10 12:34:57;;;;;;;2.38;1.80;;;8.50;99.90;;;;;;4809836;29;20054;-92
2021/12/10 12:37:24;;;;;;;2.95;1.90;;;8.40;99.90;;;;;;4853235;29;20128;-91
2021/12/10 12:39:59;;;;;;;2.28;1.75;;;8.30;99.90;;;;;;4823127;29;20075;-90
2021/12/10 12:42:35;;;;;;;2.13;1.80;;;8.20;99.90;;;;;;4808547;29;20058;-92
2021/12/10 12:45:06;;;;;;;3.95;2.10;;;8.20;99.90;;;;;;4837333;29;20133;-91
2021/12/10 12:47:37;;;;;;;3.55;1.77;;;8.10;99.90;;;;;;4838721;29;20051;-91
2021/12/10 12:50:18;;;;;;;5.00;1.90;;;8.10;99.90;;;;;;4821623;29;20046;-91
2021/12/10 12:52:47;;;;;;;3.47;1.92;;;8.10;99.90;;;;;;4806482;29;20413;-92
2021/12/10 12:55:31;;;;;;;2.75;1.95;;;8.10;99.90;;;;;;4822139;29;20078;-92
2021/12/10 12:58:09;;;;;;;3.55;2.08;;;8.00;99.90;;;;;;4806848;29;20556;-92
2021/12/10 13:00:44;;;;;;;5.30;2.25;;;7.90;99.90;;;;;;4806542;29;20145;-92
2021/12/10 13:03:18;;;;;;;1.95;1.77;;;7.90;99.90;;;;;;4807106;29;20147;-92
2021/12/10 13:06:19;;;;;;;4.03;2.05;;;8.00;99.90;;;;;;4821205;29;20062;-91
2021/12/10 13:08:57;;;;;;;1.98;1.38;;;8.00;99.90;;;;;;4796456;29;20067;-91
2021/12/10 13:11:46;;;;;;;3.03;1.60;;;8.00;99.90;;;;;;4821964;29;20109;-92
2021/12/10 13:14:15;;;;;;;3.00;1.67;;;8.00;99.90;;;;;;4806602;29;20065;-92
2021/12/10 13:16:50;;;;;;;3.45;1.98;;;7.90;99.90;;;;;;4806193;29;20050;-92
2021/12/10 13:19:20;;;;;;;3.50;1.85;;;7.90;99.90;;;;;;4791768;29;20061;-92
2021/12/10 13:22:05;;;;;;;3.00;1.98;;;8.00;99.90;;;;;;4821140;29;20063;-92
2021/12/10 13:24:31;;;;;;;1.75;1.38;;;8.00;99.90;;;;;;4806182;29;20115;-92
2021/12/10 13:26:59;;;;;;;3.53;1.67;;;8.10;99.90;;;;;;4821147;29;20466;-92
2021/12/10 13:29:26;;;;;;;3.85;1.95;;;7.60;99.90;;;;;;4791787;29;20057;-92